Time;durP1;ratioP1;P1;durP2;ratioP2;P2;SDS_P1;SDS_P2;PMS_P1;PMS_P2;Temp;Humidity;BMP_temperature;BMP_pressure;BME280_temperature;BME280_humidity;BME280_pressure;Samples;Min_cycle;Max_cycle;Signal;HPM_P1;HPM_P2
2023/07/08 00:02:10;;;;;;;7.60;6.83;;;;;;;21.71;72.39;100171.31;4954618;28;20278;-74
2023/07/08 00:04:36;;;;;;;8.43;7.63;;;;;;;21.72;71.81;100166.88;4952558;28;20264;-75
2023/07/08 00:07:02;;;;;;;8.60;7.70;;;;;;;21.71;72.25;100152.00;4955850;28;20217;-74
2023/07/08 00:09:27;;;;;;;8.43;7.20;;;;;;;21.68;72.14;100160.13;4952758;28;20667;-74
2023/07/08 00:11:52;;;;;;;7.07;6.37;;;;;;;21.66;72.71;100157.56;4946803;28;20241;-75
2023/07/08 00:14:17;;;;;;;9.00;6.93;;;;;;;21.68;72.59;100149.59;4957208;28;20915;-74
2023/07/08 00:16:43;;;;;;;8.87;7.97;;;;;;;21.64;72.40;100151.53;4953407;28;20316;-75
2023/07/08 00:19:10;;;;;;;8.43;7.43;;;;;;;21.60;72.93;100150.84;4950027;28;20213;-75
2023/07/08 00:21:35;;;;;;;9.53;7.50;;;;;;;21.64;71.38;100155.97;4962579;28;20285;-74
2023/07/08 00:24:01;;;;;;;9.00;7.43;;;;;;;21.54;71.90;100164.38;4955845;28;20212;-75
2023/07/08 00:26:29;;;;;;;7.90;7.10;;;;;;;21.53;72.47;100165.28;4948566;28;20189;-75
2023/07/08 00:28:55;;;;;;;8.20;7.40;;;;;;;21.51;73.16;100163.66;4971358;28;20199;-75
2023/07/08 00:31:25;;;;;;;9.50;7.33;;;;;;;21.52;73.54;100154.84;4953839;28;20198;-76
2023/07/08 00:33:55;;;;;;;10.30;8.10;;;;;;;21.51;73.46;100167.16;4950538;28;20205;-75
2023/07/08 00:36:21;;;;;;;6.40;5.80;;;;;;;21.49;73.56;100171.66;4946575;28;20207;-75
2023/07/08 00:38:46;;;;;;;7.50;6.80;;;;;;;21.48;74.10;100177.84;4990567;28;20194;-75
2023/07/08 00:41:18;;;;;;;7.30;6.60;;;;;;;21.44;73.72;100174.56;4946677;28;20191;-75
2023/07/08 00:43:52;;;;;;;7.13;6.47;;;;;;;21.44;74.15;100171.06;4949769;28;20190;-76
2023/07/08 00:46:24;;;;;;;8.40;7.40;;;;;;;21.42;74.25;100168.53;4950991;28;20198;-75
2023/07/08 00:48:53;;;;;;;7.87;7.17;;;;;;;21.39;73.92;100173.13;4950892;28;20215;-75
2023/07/08 00:51:20;;;;;;;8.57;7.67;;;;;;;21.36;74.16;100168.03;4945024;28;20277;-75
2023/07/08 00:53:45;;;;;;;8.07;7.27;;;;;;;21.35;74.38;100175.06;4985357;28;20206;-75
2023/07/08 00:56:25;;;;;;;9.80;8.30;;;;;;;21.27;74.05;100159.69;4954308;28;20195;-75
2023/07/08 00:58:57;;;;;;;8.17;7.37;;;;;;;21.23;73.72;100160.81;4979740;28;20298;-75
2023/07/08 01:01:23;;;;;;;12.20;8.07;;;;;;;21.20;73.89;100171.50;4946354;28;20282;-76
2023/07/08 01:03:55;;;;;;;8.20;7.33;;;;;;;21.19;73.89;100168.94;4950134;28;20686;-75
2023/07/08 01:06:23;;;;;;;8.77;7.33;;;;;;;21.15;74.49;100173.53;4980152;28;20191;-76
2023/07/08 01:08:53;;;;;;;8.27;7.47;;;;;;;21.12;74.95;100173.69;5009959;28;20167;-75
2023/07/08 01:11:21;;;;;;;8.27;7.47;;;;;;;21.12;75.75;100168.44;4952228;28;20274;-75
2023/07/08 01:13:50;;;;;;;8.60;7.73;;;;;;;21.12;76.20;100169.31;4948394;28;20271;-75
2023/07/08 01:16:16;;;;;;;8.10;7.40;;;;;;;21.10;76.85;100170.34;4952636;28;20816;-75
2023/07/08 01:18:42;;;;;;;8.17;6.97;;;;;;;21.07;77.41;100170.50;4955218;28;20198;-76
2023/07/08 01:21:30;;;;;;;8.13;6.93;;;;;;;21.05;78.46;100174.97;4950173;28;20190;-75
2023/07/08 01:23:55;;;;;;;7.37;6.67;;;;;;;21.03;79.31;100172.41;4943963;28;20183;-75
2023/07/08 01:26:25;;;;;;;7.57;6.70;;;;;;;20.98;79.59;100180.56;4946962;28;20552;-75
2023/07/08 01:28:53;;;;;;;7.83;7.00;;;;;;;20.95;80.53;100180.72;4963828;28;21063;-75
2023/07/08 01:31:19;;;;;;;7.70;6.93;;;;;;;20.91;81.27;100184.47;4950658;28;20187;-75
2023/07/08 01:33:44;;;;;;;7.80;7.10;;;;;;;20.88;81.73;100182.00;4950022;28;20768;-75
2023/07/08 01:36:11;;;;;;;7.27;6.57;;;;;;;20.82;81.96;100180.56;4954882;28;20203;-75
2023/07/08 01:38:38;;;;;;;6.73;6.13;;;;;;;20.78;81.89;100180.81;4962070;28;20264;-76
2023/07/08 01:41:03;;;;;;;7.67;6.97;;;;;;;20.72;81.98;100189.84;4945059;28;20592;-75
2023/07/08 01:43:28;;;;;;;8.23;7.33;;;;;;;20.65;80.66;100186.66;4946712;28;20926;-75
2023/07/08 01:45:58;;;;;;;7.97;7.17;;;;;;;20.60;80.79;100183.44;4944174;28;20244;-75
2023/07/08 01:48:24;;;;;;;8.20;7.40;;;;;;;20.55;81.34;100178.44;4951519;28;20349;-75
2023/07/08 01:50:58;;;;;;;7.43;6.73;;;;;;;20.52;82.18;100181.22;4967558;28;20818;-76
2023/07/08 01:53:41;;;;;;;8.73;7.83;;;;;;;20.46;81.43;100175.44;4951596;28;20244;-75
2023/07/08 01:56:07;;;;;;;9.43;8.20;;;;;;;20.37;81.26;100171.50;4947512;28;20993;-75
2023/07/08 01:58:34;;;;;;;7.70;7.03;;;;;;;20.30;81.09;100167.47;4947855;28;20236;-76
2023/07/08 02:01:00;;;;;;;7.40;6.63;;;;;;;20.25;81.50;100171.22;4953075;28;20248;-76
2023/07/08 02:03:26;;;;;;;7.93;7.17;;;;;;;20.22;81.63;100173.13;4951808;28;20198;-76
2023/07/08 02:05:51;;;;;;;8.07;7.27;;;;;;;20.19;82.05;100168.06;4949538;28;20190;-76
2023/07/08 02:08:17;;;;;;;7.50;6.83;;;;;;;20.16;83.00;100181.34;4950123;28;20213;-75
2023/07/08 02:10:44;;;;;;;7.30;6.57;;;;;;;20.16;83.18;100183.97;4958200;28;20197;-75
2023/07/08 02:13:10;;;;;;;7.53;6.80;;;;;;;20.15;83.99;100182.28;4956649;28;20201;-75
2023/07/08 02:15:35;;;;;;;7.87;7.10;;;;;;;20.10;84.52;100178.09;4948818;28;20210;-75
2023/07/08 02:18:01;;;;;;;8.87;7.97;;;;;;;20.05;84.01;100193.22;4955794;28;20245;-76
2023/07/08 02:20:26;;;;;;;7.93;7.13;;;;;;;20.00;83.96;100194.38;4954610;28;20202;-76
2023/07/08 02:22:51;;;;;;;9.03;7.87;;;;;;;19.95;84.27;100195.50;4944757;28;20220;-75
2023/07/08 02:25:17;;;;;;;8.60;7.67;;;;;;;19.94;84.26;100199.03;4948955;28;20216;-75
2023/07/08 02:27:42;;;;;;;8.70;6.93;;;;;;;19.96;85.29;100196.31;4942631;28;20593;-75
2023/07/08 02:30:09;;;;;;;8.00;7.20;;;;;;;20.00;85.90;100208.38;4951436;28;20251;-75
2023/07/08 02:32:35;;;;;;;8.00;7.30;;;;;;;20.03;86.45;100200.34;4957526;28;20324;-76
2023/07/08 02:35:02;;;;;;;8.87;7.97;;;;;;;20.03;86.84;100195.09;4946027;28;20215;-75
2023/07/08 02:37:28;;;;;;;7.83;7.03;;;;;;;20.05;86.68;100201.09;4951497;28;20213;-74
2023/07/08 02:39:54;;;;;;;9.70;6.83;;;;;;;20.06;86.67;100200.19;4947172;28;20206;-75
2023/07/08 02:42:19;;;;;;;10.20;7.50;;;;;;;20.08;87.35;100200.13;4953422;28;20601;-75
2023/07/08 02:44:44;;;;;;;11.63;8.37;;;;;;;20.07;87.45;100199.25;4955074;28;20182;-75
2023/07/08 02:47:10;;;;;;;9.37;7.33;;;;;;;20.08;87.46;100194.88;4955353;28;20204;-75
2023/07/08 02:49:35;;;;;;;9.03;7.77;;;;;;;20.07;88.18;100195.78;4948839;28;20616;-75
2023/07/08 02:52:00;;;;;;;7.93;7.17;;;;;;;20.07;87.99;100199.25;4951669;28;20685;-74
2023/07/08 02:54:26;;;;;;;8.20;7.40;;;;;;;20.09;88.34;100196.56;4958642;28;20201;-74
2023/07/08 02:56:51;;;;;;;9.20;7.30;;;;;;;20.09;88.36;100193.94;4963841;28;20233;-74
2023/07/08 02:59:16;;;;;;;7.53;6.73;;;;;;;20.07;87.68;100201.88;4964861;28;20196;-74
2023/07/08 03:01:41;;;;;;;7.10;6.50;;;;;;;20.05;86.69;100206.34;4955690;28;20828;-75
2023/07/08 03:04:12;;;;;;;6.73;6.13;;;;;;;20.04;86.61;100203.81;4950246;28;20242;-75
2023/07/08 03:06:42;;;;;;;7.23;6.53;;;;;;;20.05;87.23;100206.34;4963745;28;20216;-74
2023/07/08 03:09:09;;;;;;;7.80;7.10;;;;;;;20.08;87.73;100208.84;4969498;28;20205;-76
2023/07/08 03:11:35;;;;;;;7.53;6.80;;;;;;;20.08;87.58;100208.00;4974318;28;20213;-75
2023/07/08 03:14:00;;;;;;;7.83;7.03;;;;;;;20.10;88.34;100217.50;4952163;28;20213;-74
2023/07/08 03:16:25;;;;;;;7.20;6.50;;;;;;;20.10;88.07;100207.00;4958612;28;20193;-75
2023/07/08 03:18:51;;;;;;;9.33;7.63;;;;;;;20.08;85.55;100213.25;4960582;28;20591;-76
2023/07/08 03:21:18;;;;;;;10.03;7.43;;;;;;;20.06;85.83;100213.31;4951766;28;20213;-76
2023/07/08 03:23:43;;;;;;;7.77;7.07;;;;;;;20.08;85.57;100206.22;4952020;28;20219;-76
2023/07/08 03:26:18;;;;;;;9.37;8.00;;;;;;;20.12;85.30;100216.56;4968053;28;20659;-75
2023/07/08 03:28:44;;;;;;;8.37;7.57;;;;;;;20.14;85.89;100205.06;4955548;28;20293;-75
2023/07/08 03:31:10;;;;;;;8.10;7.27;;;;;;;20.17;85.67;100209.31;4961369;28;20391;-75
2023/07/08 03:33:36;;;;;;;13.57;8.60;;;;;;;20.17;85.33;100209.31;4953206;28;20193;-75
2023/07/08 03:36:03;;;;;;;9.20;8.23;;;;;;;20.11;87.05;100210.47;4951321;28;20225;-75
2023/07/08 03:38:28;;;;;;;12.50;8.07;;;;;;;20.08;87.04;100214.09;4951536;28;20209;-75
2023/07/08 03:40:53;;;;;;;7.90;7.00;;;;;;;20.09;86.89;100223.69;4959268;28;20193;-75
2023/07/08 03:43:19;;;;;;;9.53;7.03;;;;;;;20.13;87.78;100219.09;4948334;28;20678;-75
2023/07/08 03:45:45;;;;;;;10.80;7.93;;;;;;;20.19;88.73;100218.81;4973575;28;20244;-76
2023/07/08 03:48:11;;;;;;;8.40;7.50;;;;;;;20.27;90.36;100222.84;4957455;28;20880;-77
2023/07/08 03:50:37;;;;;;;9.73;7.50;;;;;;;20.31;90.62;100229.63;4955031;28;20214;-75
2023/07/08 03:53:02;;;;;;;10.33;7.30;;;;;;;20.37;90.63;100227.53;4951944;28;20178;-75
2023/07/08 03:55:28;;;;;;;10.43;7.97;;;;;;;20.43;90.96;100223.75;4951953;28;20290;-76
2023/07/08 03:57:54;;;;;;;8.60;7.20;;;;;;;20.52;91.51;100230.31;4954569;28;20301;-75
2023/07/08 04:00:19;;;;;;;8.70;7.13;;;;;;;20.61;91.72;100239.50;4962367;28;20200;-76
2023/07/08 04:02:46;;;;;;;8.27;7.27;;;;;;;20.65;91.39;100231.38;4952972;28;20196;-76
2023/07/08 04:05:16;;;;;;;7.13;6.43;;;;;;;20.68;89.96;100236.47;4953198;28;20182;-76
2023/07/08 04:07:42;;;;;;;8.00;7.00;;;;;;;20.69;89.62;100234.72;4951899;28;20247;-76
2023/07/08 04:10:09;;;;;;;7.43;6.53;;;;;;;20.70;88.97;100236.41;4963134;28;20345;-74
2023/07/08 04:12:34;;;;;;;8.00;7.20;;;;;;;20.71;88.48;100232.84;4954704;28;20212;-75
2023/07/08 04:14:59;;;;;;;7.77;6.97;;;;;;;20.70;87.81;100232.00;4955483;28;20242;-75
2023/07/08 04:17:25;;;;;;;8.53;6.77;;;;;;;20.71;87.93;100233.69;4950780;28;20225;-75
2023/07/08 04:19:50;;;;;;;9.20;7.47;;;;;;;20.66;86.92;100230.44;4951037;28;20199;-76
2023/07/08 04:22:16;;;;;;;8.23;7.40;;;;;;;20.66;87.73;100238.31;4961811;28;20554;-75
2023/07/08 04:24:41;;;;;;;9.03;7.03;;;;;;;20.69;88.26;100235.53;4950862;28;21679;-75
2023/07/08 04:27:14;;;;;;;7.13;6.43;;;;;;;20.78;88.36;100242.13;4946384;28;20242;-76
2023/07/08 04:29:40;;;;;;;7.63;6.93;;;;;;;20.86;87.65;100244.38;4954898;28;20181;-77
2023/07/08 04:32:06;;;;;;;7.53;6.83;;;;;;;20.94;87.20;100242.19;4951190;28;20195;-75
2023/07/08 04:34:31;;;;;;;9.17;7.20;;;;;;;21.02;87.46;100247.88;4956402;28;20268;-75
2023/07/08 04:36:57;;;;;;;8.27;7.47;;;;;;;21.11;87.08;100267.59;4960255;28;20216;-76
2023/07/08 04:39:22;;;;;;;8.27;7.10;;;;;;;21.26;86.56;100275.59;4955145;28;20196;-75
2023/07/08 04:41:47;;;;;;;8.90;7.80;;;;;;;21.48;85.45;100277.91;4981271;28;20194;-75
2023/07/08 04:44:13;;;;;;;7.90;7.10;;;;;;;21.82;83.67;100297.13;4954122;28;20570;-76
2023/07/08 04:46:41;;;;;;;7.77;6.93;;;;;;;22.13;82.35;100292.78;4953651;28;20205;-75
2023/07/08 04:49:09;;;;;;;7.60;6.90;;;;;;;22.31;80.72;100295.28;4954239;28;20205;-75
2023/07/08 04:51:35;;;;;;;8.27;6.87;;;;;;;22.39;79.46;100303.56;4955104;28;20218;-75
2023/07/08 04:54:00;;;;;;;7.77;7.03;;;;;;;22.49;78.51;100330.28;4950409;28;20218;-75
2023/07/08 04:56:35;;;;;;;7.80;7.00;;;;;;;22.65;77.26;100343.41;4952826;28;20245;-74
2023/07/08 04:59:01;;;;;;;9.03;7.83;;;;;;;23.14;76.33;100347.56;4945466;28;20213;-74
2023/07/08 05:01:27;;;;;;;9.83;8.60;;;;;;;23.82;74.40;100361.88;4947609;28;20247;-76
2023/07/08 05:03:52;;;;;;;9.77;8.47;;;;;;;24.31;73.21;100363.16;4947641;28;20488;-74
2023/07/08 05:06:17;;;;;;;8.57;7.77;;;;;;;24.65;72.03;100363.59;4949173;28;20225;-75
2023/07/08 05:08:43;;;;;;;8.53;7.73;;;;;;;25.09;71.41;100360.69;4942207;28;20514;-75
2023/07/08 05:11:08;;;;;;;8.77;7.83;;;;;;;25.39;70.42;100363.00;4949252;28;20238;-75
2023/07/08 05:13:33;;;;;;;8.87;7.97;;;;;;;25.42;70.06;100368.09;4968879;28;20210;-74
2023/07/08 05:15:59;;;;;;;8.43;7.53;;;;;;;25.29;69.70;100375.19;4974743;28;20206;-74
2023/07/08 05:18:24;;;;;;;8.97;8.07;;;;;;;25.18;69.75;100381.25;4954775;28;20257;-75
2023/07/08 05:20:54;;;;;;;10.63;8.40;;;;;;;24.79;69.90;100378.56;4947629;28;20191;-75
2023/07/08 05:23:20;;;;;;;9.40;8.43;;;;;;;24.79;70.27;100385.66;4952775;28;20190;-75
2023/07/08 05:25:46;;;;;;;8.50;7.70;;;;;;;25.15;69.90;100372.66;4952290;28;20702;-75
2023/07/08 05:28:11;;;;;;;8.47;7.67;;;;;;;25.56;68.75;100367.13;4949052;28;20222;-75
2023/07/08 05:30:40;;;;;;;9.43;7.93;;;;;;;25.97;67.75;100365.13;4946177;28;20202;-75
2023/07/08 05:33:05;;;;;;;9.67;8.67;;;;;;;26.32;66.58;100366.16;4949695;28;20277;-75
2023/07/08 05:35:31;;;;;;;9.93;7.73;;;;;;;26.72;65.78;100365.81;4954974;28;20348;-75
2023/07/08 05:37:56;;;;;;;7.73;7.00;;;;;;;27.33;64.62;100371.84;4949002;28;20626;-75
2023/07/08 05:40:21;;;;;;;8.73;7.90;;;;;;;27.38;63.88;100375.84;4945203;28;20671;-74
2023/07/08 05:42:46;;;;;;;8.80;7.90;;;;;;;27.36;63.89;100371.63;4946643;28;20201;-75
2023/07/08 05:45:12;;;;;;;10.20;7.93;;;;;;;26.83;64.00;100374.81;4950161;28;20778;-75
2023/07/08 05:47:38;;;;;;;9.05;7.63;;;;;;;26.36;64.98;100364.13;4939263;28;20218;-75
2023/07/08 05:50:04;;;;;;;8.33;7.53;;;;;;;26.20;65.55;100362.59;4945307;28;20202;-75
2023/07/08 05:52:29;;;;;;;8.17;7.37;;;;;;;25.87;66.72;100364.94;4946074;28;20201;-75
2023/07/08 05:54:55;;;;;;;8.27;7.37;;;;;;;25.59;67.01;100365.22;4945036;28;20246;-74
2023/07/08 05:57:20;;;;;;;10.87;8.13;;;;;;;25.52;67.53;100367.47;4973548;28;20214;-75
2023/07/08 05:59:46;;;;;;;7.77;6.97;;;;;;;25.46;68.02;100373.19;4937847;28;20511;-74
2023/07/08 06:02:12;;;;;;;9.70;7.47;;;;;;;25.53;68.79;100367.34;4937721;28;20290;-75
2023/07/08 06:04:38;;;;;;;7.70;6.90;;;;;;;25.76;68.23;100374.63;4946991;28;20703;-74
2023/07/08 06:07:03;;;;;;;8.23;7.13;;;;;;;26.42;68.21;100363.69;4939184;28;20277;-75
2023/07/08 06:09:29;;;;;;;8.97;7.27;;;;;;;27.27;67.46;100365.22;4947055;28;20206;-75
2023/07/08 06:11:54;;;;;;;8.07;7.32;;;;;;;28.08;65.79;100361.50;4939010;28;20222;-76
2023/07/08 06:14:19;;;;;;;7.97;7.28;;;;;;;28.74;64.20;100358.72;4962189;28;20731;-75
2023/07/08 06:16:45;;;;;;;7.72;7.00;;;;;;;29.23;63.29;100357.31;4946668;28;20775;-76
2023/07/08 06:19:10;;;;;;;7.97;6.93;;;;;;;29.81;62.39;100356.66;4943400;28;20194;-75
2023/07/08 06:21:36;;;;;;;6.93;6.28;;;;;;;30.10;61.71;100348.72;4944206;28;20301;-75
2023/07/08 06:24:01;;;;;;;7.70;5.75;;;;;;;30.68;61.46;100343.53;4942561;28;20183;-75
2023/07/08 06:26:26;;;;;;;6.30;5.70;;;;;;;31.11;61.26;100350.16;4945458;28;20618;-75
2023/07/08 06:28:52;;;;;;;7.93;5.32;;;;;;;31.45;60.28;100348.75;4944026;28;20199;-74
2023/07/08 06:31:17;;;;;;;8.05;6.05;;;;;;;31.78;60.10;100354.53;4956761;28;20190;-74
2023/07/08 06:33:43;;;;;;;6.53;5.80;;;;;;;31.81;60.21;100354.22;4937807;28;20309;-74
2023/07/08 06:36:08;;;;;;;5.80;5.30;;;;;;;31.35;60.87;100361.34;4944445;28;20220;-76
2023/07/08 06:38:34;;;;;;;7.43;5.95;;;;;;;30.78;61.54;100354.19;4942585;28;20257;-76
2023/07/08 06:40:59;;;;;;;6.57;5.95;;;;;;;31.01;61.81;100360.00;4946975;28;20210;-76
2023/07/08 06:43:25;;;;;;;6.10;5.50;;;;;;;30.95;62.39;100357.94;4947735;28;20273;-74
2023/07/08 06:45:50;;;;;;;6.60;5.90;;;;;;;31.38;61.67;100367.22;4979577;28;20187;-75
2023/07/08 06:48:15;;;;;;;5.88;4.72;;;;;;;31.16;63.10;100373.78;4972231;28;20376;-75
2023/07/08 06:50:47;;;;;;;5.60;4.75;;;;;;;30.97;63.31;100377.34;4939171;29;20198;-75
2023/07/08 06:53:13;;;;;;;4.60;4.15;;;;;;;30.68;64.21;100376.41;4943697;28;20578;-75
2023/07/08 06:55:39;;;;;;;5.57;3.83;;;;;;;30.32;64.56;100381.47;4944447;28;20679;-76
2023/07/08 06:58:04;;;;;;;4.47;3.92;;;;;;;30.06;64.64;100376.66;4946560;28;20220;-74
2023/07/08 07:00:30;;;;;;;9.75;4.30;;;;;;;29.65;66.03;100374.03;4962091;28;20183;-75
2023/07/08 07:02:55;;;;;;;5.38;3.10;;;;;;;29.94;65.32;100383.09;4943719;28;20199;-75
2023/07/08 07:05:20;;;;;;;4.40;4.00;;;;;;;29.31;66.57;100379.66;4947207;28;20195;-76
2023/07/08 07:07:46;;;;;;;4.63;3.58;;;;;;;29.17;66.87;100380.00;4942917;28;20751;-75
2023/07/08 07:10:11;;;;;;;3.67;3.30;;;;;;;29.34;67.28;100383.84;4943343;28;20237;-76
2023/07/08 07:12:36;;;;;;;4.22;3.63;;;;;;;29.17;67.43;100380.84;4949407;28;20190;-76
2023/07/08 07:15:03;;;;;;;5.03;3.15;;;;;;;29.12;67.67;100384.88;4969686;28;20225;-76
2023/07/08 07:17:28;;;;;;;3.17;2.88;;;;;;;29.00;68.41;100392.09;4973482;28;20229;-75
2023/07/08 07:19:54;;;;;;;4.85;3.20;;;;;;;29.27;68.15;100391.53;4942776;28;20191;-75
2023/07/08 07:22:20;;;;;;;5.10;3.15;;;;;;;29.64;67.69;100393.69;4943094;28;20191;-75
2023/07/08 07:24:45;;;;;;;6.18;3.28;;;;;;;29.77;66.92;100393.44;4961256;28;20183;-75
2023/07/08 07:27:11;;;;;;;4.13;3.33;;;;;;;30.53;65.61;100393.81;4946326;28;20226;-75
2023/07/08 07:29:45;;;;;;;3.78;3.38;;;;;;;30.73;64.81;100391.19;4959817;28;20186;-75
2023/07/08 07:32:12;;;;;;;4.93;2.95;;;;;;;30.87;63.40;100383.53;4945130;28;20241;-76
2023/07/08 07:34:38;;;;;;;3.33;3.03;;;;;;;30.93;63.68;100383.97;4942899;28;20234;-75
2023/07/08 07:37:04;;;;;;;3.42;2.83;;;;;;;31.03;63.01;100387.44;4943728;28;20720;-75
2023/07/08 07:39:30;;;;;;;5.53;3.10;;;;;;;31.11;62.86;100387.56;4940115;28;20210;-76
2023/07/08 07:41:55;;;;;;;3.90;3.10;;;;;;;30.75;63.74;100399.91;4939706;28;20657;-75
2023/07/08 07:44:20;;;;;;;5.80;2.80;;;;;;;30.78;63.28;100394.28;4942532;28;20192;-75
2023/07/08 07:46:46;;;;;;;3.03;2.70;;;;;;;31.08;63.00;100403.91;4977084;28;20214;-75
2023/07/08 07:49:12;;;;;;;4.70;2.80;;;;;;;31.07;63.25;100404.88;4964271;28;20187;-76
2023/07/08 07:51:38;;;;;;;5.38;2.50;;;;;;;31.53;63.03;100396.16;4959697;28;20190;-76
2023/07/08 07:54:03;;;;;;;3.97;2.80;;;;;;;31.65;62.51;100391.47;4944193;28;20217;-77
2023/07/08 07:56:28;;;;;;;2.92;2.63;;;;;;;31.58;62.08;100391.22;4946625;28;20967;-76
2023/07/08 07:58:54;;;;;;;3.42;3.10;;;;;;;31.58;62.01;100397.41;4945729;28;20196;-76
2023/07/08 08:01:19;;;;;;;4.32;2.30;;;;;;;31.80;62.00;100394.50;4944831;28;20190;-75
2023/07/08 08:03:45;;;;;;;4.03;2.58;;;;;;;32.27;60.77;100394.34;4946982;28;20210;-75
2023/07/08 08:06:10;;;;;;;3.90;2.55;;;;;;;32.34;60.31;100394.56;4943322;28;20269;-75
2023/07/08 08:08:35;;;;;;;4.35;2.47;;;;;;;32.09;60.62;100391.63;4944602;28;20293;-76
2023/07/08 08:11:01;;;;;;;3.38;2.47;;;;;;;31.63;60.48;100392.44;4941743;28;20938;-75
2023/07/08 08:13:26;;;;;;;2.80;2.53;;;;;;;32.12;58.57;100396.69;4955169;28;20186;-74
2023/07/08 08:15:59;;;;;;;3.03;2.47;;;;;;;31.36;58.59;100403.97;4940893;28;20226;-74
2023/07/08 08:18:25;;;;;;;4.53;2.55;;;;;;;31.16;59.87;100405.88;4944639;28;20634;-74
2023/07/08 08:20:51;;;;;;;4.32;2.35;;;;;;;31.84;59.92;100412.75;4941942;28;20179;-75
2023/07/08 08:23:16;;;;;;;3.03;2.30;;;;;;;32.38;58.19;100417.38;4942418;28;20265;-74
2023/07/08 08:25:42;;;;;;;3.38;2.03;;;;;;;32.59;57.82;100424.25;4945535;28;20633;-74
2023/07/08 08:28:07;;;;;;;3.35;2.53;;;;;;;32.23;57.83;100411.66;4940497;28;20222;-76
2023/07/08 08:30:33;;;;;;;2.72;2.10;;;;;;;31.78;58.95;100421.41;4944069;28;20190;-74
2023/07/08 08:32:58;;;;;;;2.20;2.00;;;;;;;32.37;58.30;100418.38;4947981;28;20190;-75
2023/07/08 08:35:23;;;;;;;3.90;2.55;;;;;;;32.14;58.40;100417.94;4950392;28;20570;-79
2023/07/08 08:37:49;;;;;;;2.53;2.03;;;;;;;32.06;57.95;100418.69;4982687;28;20214;-75
2023/07/08 08:40:17;;;;;;;2.30;2.10;;;;;;;31.84;59.15;100426.16;4960758;28;20198;-75
2023/07/08 08:42:58;;;;;;;2.47;2.20;;;;;;;31.84;58.54;100418.13;4977895;28;20187;-75
2023/07/08 08:45:25;;;;;;;2.65;2.38;;;;;;;31.66;58.31;100418.06;4947367;28;20198;-75
2023/07/08 08:47:59;;;;;;;4.03;2.67;;;;;;;31.57;58.33;100421.63;4956558;28;20787;-75
2023/07/08 08:50:47;;;;;;;2.72;1.95;;;;;;;31.41;58.41;100419.56;4948921;28;20186;-76
2023/07/08 08:53:16;;;;;;;3.58;2.33;;;;;;;31.96;57.38;100417.94;4947857;28;20297;-76
2023/07/08 08:55:42;;;;;;;2.28;1.95;;;;;;;31.63;57.36;100421.03;4944672;28;20225;-75
2023/07/08 08:58:24;;;;;;;4.03;2.20;;;;;;;30.96;56.52;100413.91;4946703;28;20202;-77
2023/07/08 09:01:08;;;;;;;4.15;2.10;;;;;;;30.95;57.69;100422.91;4961198;28;20186;-75
2023/07/08 09:03:55;;;;;;;2.92;2.15;;;;;;;31.01;57.82;100414.31;4945957;28;20202;-75
2023/07/08 09:06:28;;;;;;;4.03;2.33;;;;;;;31.23;57.28;100417.69;4947491;28;20206;-76
2023/07/08 09:08:56;;;;;;;4.35;2.15;;;;;;;31.10;57.40;100409.94;4948773;28;20263;-76
2023/07/08 09:11:41;;;;;;;3.60;2.03;;;;;;;31.10;57.56;100417.09;4946726;28;20300;-76
2023/07/08 09:14:23;;;;;;;2.08;1.65;;;;;;;30.90;56.23;100408.28;4959460;28;20218;-76
2023/07/08 09:16:52;;;;;;;3.38;2.08;;;;;;;30.61;57.07;100415.38;4969643;28;20203;-75
2023/07/08 09:19:25;;;;;;;2.33;2.13;;;;;;;30.59;57.56;100422.69;4948927;28;20225;-75
2023/07/08 09:22:01;;;;;;;3.70;2.00;;;;;;;30.27;56.53;100421.91;4957691;28;20941;-75
2023/07/08 09:24:40;;;;;;;2.72;2.10;;;;;;;30.52;56.90;100417.03;4947935;28;20191;-76
2023/07/08 09:27:05;;;;;;;2.50;1.90;;;;;;;30.40;57.44;100421.66;4958897;28;21008;-76
2023/07/08 09:29:32;;;;;;;3.17;1.90;;;;;;;30.54;56.67;100408.88;4946078;28;20194;-77
2023/07/08 09:31:58;;;;;;;2.45;1.80;;;;;;;30.54;57.36;100412.44;4944085;28;20186;-76
2023/07/08 09:34:38;;;;;;;3.85;1.92;;;;;;;30.39;57.64;100408.47;4957925;28;20215;-75
2023/07/08 09:37:28;;;;;;;2.97;2.00;;;;;;;30.66;56.79;100406.94;4945657;28;20210;-76
2023/07/08 09:39:55;;;;;;;2.37;1.57;;;;;;;30.68;56.80;100410.31;4946192;28;20202;-76
2023/07/08 09:42:24;;;;;;;1.80;1.60;;;;;;;30.70;58.01;100403.00;4948008;28;20255;-76
2023/07/08 09:44:55;;;;;;;2.72;1.75;;;;;;;30.65;57.96;100405.25;4940799;28;21029;-76
2023/07/08 09:47:30;;;;;;;3.25;1.70;;;;;;;30.60;58.33;100405.69;4938726;28;20289;-76
2023/07/08 09:49:58;;;;;;;1.85;1.42;;;;;;;30.61;58.47;100399.34;4942634;28;20190;-76
2023/07/08 09:52:24;;;;;;;2.65;1.98;;;;;;;30.46;57.75;100408.75;4949163;28;20217;-76
2023/07/08 09:54:49;;;;;;;2.20;1.63;;;;;;;30.52;58.39;100411.69;4949827;28;20321;-77
2023/07/08 09:57:25;;;;;;;3.42;1.50;;;;;;;30.50;57.01;100418.13;4951090;28;20302;-76
2023/07/08 09:59:58;;;;;;;3.42;1.60;;;;;;;30.71;56.80;100412.66;4942409;28;20532;-75
2023/07/08 10:02:31;;;;;;;1.98;1.67;;;;;;;30.76;57.29;100409.59;4948385;28;20197;-77
2023/07/08 10:05:00;;;;;;;2.80;1.80;;;;;;;30.88;57.38;100408.44;4948161;28;20193;-76
2023/07/08 10:07:29;;;;;;;2.05;1.80;;;;;;;30.93;57.31;100402.66;4947392;28;20214;-77
2023/07/08 10:09:58;;;;;;;4.13;1.90;;;;;;;31.00;57.47;100406.47;4942317;28;20183;-77
2023/07/08 10:12:24;;;;;;;2.10;1.90;;;;;;;30.96;56.67;100407.72;4948528;28;20210;-77
2023/07/08 10:14:56;;;;;;;4.20;1.77;;;;;;;30.80;57.01;100400.28;4942258;28;20210;-77
2023/07/08 10:17:21;;;;;;;2.70;2.10;;;;;;;30.76;57.64;100396.25;4943692;28;20274;-77
2023/07/08 10:19:47;;;;;;;2.38;1.75;;;;;;;30.67;57.91;100397.94;4950524;28;22205;-77
2023/07/08 10:22:38;;;;;;;2.97;2.17;;;;;;;30.48;57.91;100402.25;4954991;28;20197;-77
2023/07/08 10:25:29;;;;;;;3.75;1.92;;;;;;;30.74;58.12;100403.56;4977844;28;20198;-78
2023/07/08 10:28:15;;;;;;;4.68;2.22;;;;;;;30.96;58.36;100410.41;4946825;28;20213;-77
2023/07/08 10:30:59;;;;;;;2.83;1.90;;;;;;;31.04;58.49;100405.16;4948198;28;21067;-76
2023/07/08 10:33:30;;;;;;;3.80;2.20;;;;;;;30.97;58.73;100407.56;4948513;28;20222;-75
2023/07/08 10:36:18;;;;;;;3.13;2.30;;;;;;;31.00;58.38;100407.28;4975851;28;20210;-76
2023/07/08 10:39:15;;;;;;;71.15;10.52;;;;;;;30.98;58.85;100411.94;4947195;28;20221;-75
2023/07/08 10:41:58;;;;;;;5.47;2.50;;;;;;;31.04;58.75;100401.66;4946695;28;20261;-76
2023/07/08 10:44:33;;;;;;;13.77;3.13;;;;;;;31.07;58.73;100407.56;4946257;28;20253;-76
2023/07/08 10:47:23;;;;;;;3.72;2.30;;;;;;;31.11;59.54;100411.63;4945499;28;20318;-77
2023/07/08 10:50:07;;;;;;;4.13;2.10;;;;;;;31.12;59.41;100407.97;4946843;28;20186;-76
2023/07/08 10:52:40;;;;;;;5.70;2.38;;;;;;;31.15;59.91;100412.19;4947024;28;20217;-76
2023/07/08 10:55:25;;;;;;;3.42;2.50;;;;;;;31.14;60.29;100408.72;4947109;28;20207;-76
2023/07/08 10:58:18;;;;;;;2.75;2.53;;;;;;;31.02;61.64;100402.66;4940958;28;20210;-77
2023/07/08 11:01:09;;;;;;;3.97;2.33;;;;;;;31.13;62.33;100400.81;4941367;28;20186;-76
2023/07/08 11:03:58;;;;;;;3.47;2.55;;;;;;;31.31;61.67;100408.94;4946171;28;20702;-77
2023/07/08 11:06:35;;;;;;;3.20;2.40;;;;;;;31.26;60.67;100401.31;4959026;28;20550;-78
2023/07/08 11:09:04;;;;;;;2.83;2.20;;;;;;;31.35;61.10;100404.13;4943506;28;20228;-76
2023/07/08 11:11:40;;;;;;;3.97;2.30;;;;;;;31.34;61.63;100403.28;4944660;28;20194;-77
2023/07/08 11:14:24;;;;;;;2.50;2.30;;;;;;;31.38;61.53;100406.50;4976835;28;20385;-78
2023/07/08 11:17:03;;;;;;;2.00;1.80;;;;;;;31.42;60.76;100394.50;4958028;28;20245;-77
2023/07/08 11:19:44;;;;;;;2.78;1.90;;;;;;;31.47;60.62;100401.09;4952107;28;20282;-76
2023/07/08 11:22:12;;;;;;;2.22;2.03;;;;;;;31.37;60.59;100402.16;4951231;28;20177;-77
2023/07/08 11:24:37;;;;;;;3.10;1.83;;;;;;;31.47;60.96;100400.28;4949616;28;20191;-76
2023/07/08 11:27:21;;;;;;;2.50;2.10;;;;;;;31.61;60.68;100398.94;4951947;28;20590;-77
2023/07/08 11:29:52;;;;;;;3.38;2.53;;;;;;;31.66;60.82;100396.66;4954179;28;20211;-76
2023/07/08 11:32:20;;;;;;;2.70;2.00;;;;;;;31.71;59.92;100397.09;4956331;28;20278;-77